Time;durP1;ratioP1;P1;durP2;ratioP2;P2;SDS_P1;SDS_P2;PMS_P1;PMS_P2;Temp;Humidity;BMP_temperature;BMP_pressure;BME280_temperature;BME280_humidity;BME280_pressure;Samples;Min_cycle;Max_cycle;Signal;HPM_P1;HPM_P2
2023/12/02 00:01:58;;;;;;;5.83;3.67;;;0.60;99.90;;;;;;5011827;28;20950;-86
2023/12/02 00:04:24;;;;;;;13.23;6.03;;;;;;;;;;5003588;28;20672;-80
2023/12/02 00:06:50;;;;;;;7.37;5.33;;;0.40;99.90;;;;;;5016331;28;20568;-78
2023/12/02 00:09:16;;;;;;;4.93;2.87;;;0.40;99.90;;;;;;5012892;28;20465;-81
2023/12/02 00:11:41;;;;;;;3.80;3.53;;;0.20;99.90;;;;;;5018381;28;20783;-82
2023/12/02 00:14:07;;;;;;;8.23;1.97;;;0.10;99.90;;;;;;5016250;28;20209;-83
2023/12/02 00:16:32;;;;;;;14.43;5.87;;;0.10;99.90;;;;;;5015557;28;20293;-83
2023/12/02 00:18:58;;;;;;;6.57;2.87;;;0.00;99.90;;;;;;5002172;28;20237;-82
2023/12/02 00:21:23;;;;;;;6.20;3.53;;;0.00;99.90;;;;;;5021364;28;20212;-82
2023/12/02 00:23:49;;;;;;;6.73;4.10;;;0.10;99.90;;;;;;5006578;28;20896;-87
2023/12/02 00:26:14;;;;;;;6.10;3.80;;;0.20;99.90;;;;;;5022440;28;20655;-83
2023/12/02 00:28:40;;;;;;;11.93;4.43;;;0.20;99.90;;;;;;5020207;28;20200;-80
2023/12/02 00:31:06;;;;;;;3.67;2.67;;;0.10;99.90;;;;;;5021904;28;20198;-84
2023/12/02 00:33:31;;;;;;;11.23;4.75;;;0.10;99.90;;;;;;5020584;28;20216;-83
2023/12/02 00:35:57;;;;;;;6.73;3.23;;;;;;;;;;5000368;28;20191;-81
2023/12/02 00:38:23;;;;;;;9.07;4.17;;;0.10;99.90;;;;;;5010770;28;20189;-81
2023/12/02 00:40:48;;;;;;;6.07;3.30;;;0.00;99.90;;;;;;5013273;28;20477;-80
2023/12/02 00:43:14;;;;;;;8.87;3.30;;;0.10;99.90;;;;;;5009381;28;20220;-80
2023/12/02 00:45:40;;;;;;;9.67;4.43;;;0.10;99.90;;;;;;5015333;28;20194;-80
2023/12/02 00:48:06;;;;;;;15.93;5.83;;;;;;;;;;5000680;28;20213;-85
2023/12/02 00:50:32;;;;;;;4.43;2.60;;;;;;;;;;4999002;28;20217;-84
2023/12/02 00:52:57;;;;;;;5.33;4.80;;;0.10;99.90;;;;;;5014224;28;20449;-81
2023/12/02 00:55:23;;;;;;;12.70;4.47;;;;;;;;;;5016031;28;20480;-79
2023/12/02 00:57:49;;;;;;;4.10;2.58;;;0.20;99.90;;;;;;5023086;28;20193;-82
2023/12/02 01:00:15;;;;;;;7.40;3.07;;;0.10;99.90;;;;;;5020530;28;20214;-79
2023/12/02 01:02:42;;;;;;;12.43;4.13;;;0.00;99.90;;;;;;5017676;28;20225;-83
2023/12/02 01:05:08;;;;;;;18.83;5.50;;;-0.10;99.90;;;;;;5022459;28;20221;-80
2023/12/02 01:07:34;;;;;;;14.63;4.38;;;;;;;;;;5006572;28;20196;-83
2023/12/02 01:10:00;;;;;;;7.07;4.13;;;-0.20;99.90;;;;;;5001286;28;20206;-86
2023/12/02 01:12:25;;;;;;;6.07;3.90;;;-0.20;99.90;;;;;;5016979;28;20453;-81
2023/12/02 01:14:51;;;;;;;10.20;4.30;;;;;;;;;;5018222;28;20217;-84
2023/12/02 01:17:17;;;;;;;7.27;4.03;;;-0.20;99.90;;;;;;5003688;28;20273;-79
2023/12/02 01:19:43;;;;;;;3.53;3.17;;;-0.10;99.90;;;;;;5014222;28;20468;-83
2023/12/02 01:22:09;;;;;;;6.40;2.22;;;-0.20;99.90;;;;;;5016597;28;20186;-82
2023/12/02 01:24:34;;;;;;;8.67;3.70;;;-0.10;99.90;;;;;;5001360;28;20197;-80
2023/12/02 01:27:00;;;;;;;6.23;4.40;;;-0.10;99.90;;;;;;5000553;28;20190;-81
2023/12/02 01:29:25;;;;;;;6.07;3.90;;;-0.30;99.90;;;;;;5017133;28;21160;-82
2023/12/02 01:31:51;;;;;;;5.33;3.67;;;-0.30;99.90;;;;;;5015959;28;21011;-86
2023/12/02 01:34:17;;;;;;;6.60;3.00;;;;;;;;;;5007330;28;20599;-84
2023/12/02 01:36:44;;;;;;;3.73;2.27;;;-0.40;99.90;;;;;;5014461;28;20186;-81
2023/12/02 01:39:12;;;;;;;5.75;4.07;;;-0.30;99.90;;;;;;5027146;28;20502;-79
2023/12/02 01:41:38;;;;;;;8.80;2.45;;;;;;;;;;5033652;28;20246;-80
2023/12/02 01:44:03;;;;;;;10.27;4.90;;;-0.20;99.90;;;;;;5025511;28;20781;-83
2023/12/02 01:46:29;;;;;;;2.73;2.57;;;;;;;;;;5022400;28;20472;-83
2023/12/02 01:48:58;;;;;;;13.50;3.57;;;-0.20;99.90;;;;;;5002538;28;20212;-81
2023/12/02 01:51:24;;;;;;;9.95;3.45;;;-0.10;99.90;;;;;;5022519;28;20608;-83
2023/12/02 01:53:49;;;;;;;7.63;2.23;;;-0.10;99.90;;;;;;5022079;28;20205;-82
2023/12/02 01:56:15;;;;;;;3.40;3.20;;;-0.20;99.90;;;;;;5018595;28;20193;-83
2023/12/02 01:58:41;;;;;;;3.17;2.33;;;-0.10;99.90;;;;;;5020859;28;20181;-83
2023/12/02 02:01:07;;;;;;;9.10;3.23;;;-0.10;99.90;;;;;;5018643;28;20214;-80
2023/12/02 02:03:33;;;;;;;8.33;4.40;;;-0.10;99.90;;;;;;5011283;28;20442;-85
2023/12/02 02:05:59;;;;;;;9.47;4.07;;;-0.30;99.90;;;;;;5015534;28;20212;-84
2023/12/02 02:08:24;;;;;;;10.90;5.55;;;-0.30;99.90;;;;;;5019830;28;20444;-83
2023/12/02 02:11:00;;;;;;;10.87;5.40;;;-0.30;99.90;;;;;;5020068;28;20541;-79
2023/12/02 02:13:26;;;;;;;12.20;2.90;;;-0.40;99.90;;;;;;5011268;28;20233;-85
2023/12/02 02:15:52;;;;;;;7.25;4.05;;;-0.60;99.90;;;;;;5029565;28;20189;-79
2023/12/02 02:18:18;;;;;;;5.60;3.00;;;-0.50;99.90;;;;;;5022704;28;20190;-82
2023/12/02 02:20:53;;;;;;;5.65;3.65;;;-0.50;99.90;;;;;;5005600;28;21556;-82
2023/12/02 02:23:20;;;;;;;13.10;3.88;;;;;;;;;;5019995;28;20196;-83
2023/12/02 02:25:46;;;;;;;5.47;2.88;;;-0.40;99.90;;;;;;5019265;28;20190;-83
2023/12/02 02:28:12;;;;;;;6.03;3.08;;;;;;;;;;5019179;28;20343;-82
2023/12/02 02:30:38;;;;;;;2.80;1.83;;;;;;;;;;5025116;28;20222;-80
2023/12/02 02:33:03;;;;;;;10.30;4.35;;;-0.40;99.90;;;;;;5004536;28;20562;-84
2023/12/02 02:35:32;;;;;;;2.77;2.27;;;-0.30;99.90;;;;;;5023823;28;20205;-84
2023/12/02 02:37:58;;;;;;;11.95;4.35;;;-0.30;99.90;;;;;;5004950;28;20280;-84
2023/12/02 02:40:23;;;;;;;10.10;5.33;;;-0.30;99.90;;;;;;5001736;28;20277;-83
2023/12/02 02:42:49;;;;;;;7.27;4.17;;;-0.30;99.90;;;;;;5007238;28;20181;-82
2023/12/02 02:45:14;;;;;;;5.90;3.40;;;-0.20;99.90;;;;;;5018949;28;20178;-82
2023/12/02 02:47:40;;;;;;;5.80;3.17;;;-0.30;99.90;;;;;;5016176;28;20588;-84
2023/12/02 02:50:06;;;;;;;9.13;3.20;;;-0.30;99.90;;;;;;5002800;28;20248;-84
2023/12/02 02:52:32;;;;;;;6.53;4.55;;;-0.30;99.90;;;;;;5001783;28;20182;-85
2023/12/02 02:54:58;;;;;;;8.93;4.80;;;-0.30;99.90;;;;;;5005059;28;20297;-85
2023/12/02 02:57:23;;;;;;;3.30;3.00;;;-0.40;99.90;;;;;;5004040;28;20437;-86
2023/12/02 02:59:49;;;;;;;4.23;3.87;;;-0.40;99.90;;;;;;5014621;28;20213;-83
2023/12/02 03:02:14;;;;;;;23.63;7.77;;;-0.30;99.90;;;;;;5005902;28;20182;-83
2023/12/02 03:04:40;;;;;;;11.40;4.50;;;-0.30;99.90;;;;;;5004134;28;20228;-84
2023/12/02 03:07:05;;;;;;;7.97;3.33;;;0.70;99.90;;;;;;5000381;28;20182;-86
2023/12/02 03:09:31;;;;;;;6.43;3.27;;;-0.20;99.90;;;;;;5003789;28;20221;-86
2023/12/02 03:11:56;;;;;;;2.40;2.17;;;-0.20;99.90;;;;;;5008177;28;20696;-83
2023/12/02 03:14:22;;;;;;;8.23;5.33;;;-0.30;99.90;;;;;;4999204;28;20259;-84
2023/12/02 03:16:48;;;;;;;5.57;4.27;;;-0.50;99.90;;;;;;5000467;28;20193;-84
2023/12/02 03:19:14;;;;;;;9.53;4.27;;;0.90;99.90;;;;;;5007981;28;20691;-82
2023/12/02 03:21:39;;;;;;;11.15;3.95;;;-0.60;99.90;;;;;;5002292;28;20189;-84
2023/12/02 03:24:06;;;;;;;5.13;2.50;;;-0.60;99.90;;;;;;5005511;28;20209;-85
2023/12/02 03:26:33;;;;;;;5.15;3.28;;;-0.60;99.90;;;;;;5006800;28;20204;-83
2023/12/02 03:28:59;;;;;;;3.50;2.50;;;-0.70;99.90;;;;;;5024621;28;20264;-84
2023/12/02 03:31:25;;;;;;;3.60;3.37;;;;;;;;;;5002602;28;20190;-86
2023/12/02 03:33:51;;;;;;;6.00;4.13;;;;;;;;;;5008041;28;20182;-82
2023/12/02 03:36:16;;;;;;;4.45;2.80;;;;;;;;;;5037775;28;20444;-85
2023/12/02 03:38:42;;;;;;;4.17;2.67;;;-0.80;99.90;;;;;;5004173;28;20244;-87
2023/12/02 03:41:08;;;;;;;12.50;5.40;;;-0.80;99.90;;;;;;5019191;28;20473;-83
2023/12/02 03:43:34;;;;;;;3.85;2.33;;;-0.80;99.90;;;;;;5015364;28;20214;-84
2023/12/02 03:46:01;;;;;;;5.20;3.13;;;-0.80;99.90;;;;;;5001436;28;20218;-85
2023/12/02 03:48:27;;;;;;;6.03;2.35;;;-0.80;99.90;;;;;;5002037;28;20255;-84
2023/12/02 03:50:53;;;;;;;5.50;3.60;;;-0.90;99.90;;;;;;5004597;28;20700;-83
2023/12/02 03:53:19;;;;;;;6.45;4.82;;;-0.90;99.90;;;;;;5018992;28;20213;-85
2023/12/02 03:55:45;;;;;;;5.97;4.17;;;-1.00;99.90;;;;;;5019744;28;20179;-85
2023/12/02 03:58:10;;;;;;;5.90;3.40;;;-1.00;99.90;;;;;;4999183;28;21144;-85
2023/12/02 04:00:36;;;;;;;4.83;2.17;;;-1.00;99.90;;;;;;5027691;28;20313;-86
2023/12/02 04:03:01;;;;;;;6.23;3.20;;;-1.00;99.90;;;;;;5015422;28;20251;-83
2023/12/02 04:05:27;;;;;;;6.90;4.23;;;-1.00;99.90;;;;;;4996685;28;20503;-83
2023/12/02 04:07:53;;;;;;;5.97;3.50;;;-0.90;99.90;;;;;;5013514;28;20723;-85
2023/12/02 04:10:19;;;;;;;3.60;2.05;;;-0.90;99.90;;;;;;5015477;28;20718;-84
2023/12/02 04:12:44;;;;;;;6.80;4.17;;;-0.90;99.90;;;;;;5015342;28;20249;-82
2023/12/02 04:15:10;;;;;;;4.80;3.03;;;-0.90;99.90;;;;;;5001408;28;20251;-86
2023/12/02 04:17:36;;;;;;;3.67;3.33;;;-1.00;99.90;;;;;;5001596;28;20205;-86
2023/12/02 04:20:08;;;;;;;6.30;2.93;;;-1.00;99.90;;;;;;5021442;28;20464;-85
2023/12/02 04:22:38;;;;;;;42.63;2.30;;;-1.10;99.90;;;;;;5007281;28;20982;-85
2023/12/02 04:25:04;;;;;;;6.15;3.00;;;-1.10;99.90;;;;;;5002738;28;20273;-84
2023/12/02 04:27:31;;;;;;;6.20;3.70;;;-1.10;99.90;;;;;;4993216;28;20187;-83
2023/12/02 04:29:57;;;;;;;1.95;1.75;;;-1.10;99.90;;;;;;5004163;28;21169;-85
2023/12/02 04:32:22;;;;;;;3.03;1.33;;;-1.10;99.90;;;;;;5004049;28;20178;-85
2023/12/02 04:34:49;;;;;;;5.30;2.27;;;-1.10;99.90;;;;;;4999498;28;20691;-86
2023/12/02 04:37:15;;;;;;;3.67;2.05;;;-1.10;99.90;;;;;;5002282;28;20185;-85
2023/12/02 04:39:40;;;;;;;3.13;2.07;;;-1.20;99.90;;;;;;4996705;28;20767;-85
2023/12/02 04:42:06;;;;;;;2.30;1.40;;;-1.20;99.90;;;;;;4994529;28;21677;-85
2023/12/02 04:44:32;;;;;;;5.07;4.63;;;-1.20;99.90;;;;;;5005024;28;20198;-84
2023/12/02 04:46:58;;;;;;;5.13;2.78;;;-1.20;99.90;;;;;;5001883;28;21260;-84
2023/12/02 04:49:23;;;;;;;5.20;3.17;;;-1.10;99.90;;;;;;5012921;28;20264;-84
2023/12/02 04:51:49;;;;;;;2.37;2.10;;;;;;;;;;5015960;28;20690;-84
2023/12/02 04:54:15;;;;;;;8.87;3.50;;;-1.10;99.90;;;;;;5015086;28;20217;-87
2023/12/02 04:56:41;;;;;;;1.80;1.70;;;-1.10;99.90;;;;;;5021866;28;20479;-84
2023/12/02 04:59:07;;;;;;;2.70;2.20;;;-1.10;99.90;;;;;;5015829;28;20460;-83
2023/12/02 05:01:32;;;;;;;10.77;3.93;;;-1.10;99.90;;;;;;4998481;28;20182;-82
2023/12/02 05:03:58;;;;;;;3.70;1.73;;;-1.10;99.90;;;;;;5014941;28;20897;-84
2023/12/02 05:06:24;;;;;;;11.10;2.97;;;-1.00;99.90;;;;;;5014061;28;20278;-83
2023/12/02 05:08:49;;;;;;;2.53;2.10;;;-0.90;99.90;;;;;;5013427;28;20880;-83
2023/12/02 05:11:20;;;;;;;4.57;3.40;;;-1.00;99.90;;;;;;5010835;28;20239;-83
2023/12/02 05:13:47;;;;;;;6.78;3.22;;;-0.80;99.90;;;;;;5009207;28;20214;-86
2023/12/02 05:16:13;;;;;;;6.32;4.07;;;;;;;;;;5008574;28;20182;-82
2023/12/02 05:18:40;;;;;;;6.90;4.68;;;-0.90;99.90;;;;;;5010503;28;20206;-83
2023/12/02 05:21:07;;;;;;;3.15;2.63;;;-0.90;99.90;;;;;;5028541;28;20205;-81
2023/12/02 05:23:32;;;;;;;6.20;4.72;;;-0.90;99.90;;;;;;5019488;28;20197;-84
2023/12/02 05:25:58;;;;;;;4.20;1.57;;;-0.90;99.90;;;;;;5005707;28;20243;-85
2023/12/02 05:28:24;;;;;;;12.50;5.97;;;;;;;;;;5009049;28;20190;-83
2023/12/02 05:30:50;;;;;;;6.82;5.05;;;-1.00;99.90;;;;;;5028786;28;20660;-85
2023/12/02 05:33:17;;;;;;;4.83;2.57;;;-1.00;99.90;;;;;;5008535;28;20209;-82
2023/12/02 05:35:42;;;;;;;8.75;4.38;;;-1.00;99.90;;;;;;5016151;28;21450;-84
2023/12/02 05:38:08;;;;;;;3.80;1.17;;;;;;;;;;5014796;28;20789;-85
2023/12/02 05:40:34;;;;;;;3.63;2.23;;;-1.00;99.90;;;;;;5017062;28;20224;-84
2023/12/02 05:43:00;;;;;;;8.77;6.07;;;;;;;;;;5009683;28;20449;-83
2023/12/02 05:45:26;;;;;;;4.73;2.10;;;-0.90;99.90;;;;;;5018057;28;20190;-85
2023/12/02 05:47:51;;;;;;;9.10;3.17;;;;;;;;;;5005925;28;20441;-86
2023/12/02 05:50:17;;;;;;;4.73;2.10;;;;;;;;;;5013239;28;20296;-84
2023/12/02 05:52:43;;;;;;;10.73;4.07;;;-0.90;99.90;;;;;;5019725;28;21076;-83
2023/12/02 05:55:09;;;;;;;5.33;4.80;;;-0.90;99.90;;;;;;5021091;28;20218;-83
2023/12/02 05:57:34;;;;;;;15.90;4.70;;;-0.90;99.90;;;;;;5019719;28;20194;-82
2023/12/02 06:00:00;;;;;;;4.97;3.53;;;-0.90;99.90;;;;;;5010070;28;20575;-85
2023/12/02 06:02:25;;;;;;;1.77;1.00;;;-0.90;99.90;;;;;;5001726;28;20192;-84
2023/12/02 06:04:51;;;;;;;8.83;3.30;;;-0.80;99.90;;;;;;5001180;28;20185;-87
2023/12/02 06:07:17;;;;;;;7.70;3.20;;;-0.80;99.90;;;;;;5016793;28;20262;-85
2023/12/02 06:09:46;;;;;;;8.23;1.90;;;;;;;;;;5006559;28;20202;-85
2023/12/02 06:12:11;;;;;;;4.43;3.15;;;-0.80;99.90;;;;;;5007009;28;20204;-82
2023/12/02 06:14:39;;;;;;;5.77;3.90;;;-0.90;99.90;;;;;;5025476;28;20210;-83
2023/12/02 06:17:05;;;;;;;5.13;2.70;;;;;;;;;;5021312;28;20293;-84
2023/12/02 06:19:31;;;;;;;9.38;2.90;;;-1.00;99.90;;;;;;5015994;28;20214;-83
2023/12/02 06:21:57;;;;;;;7.20;3.07;;;-1.00;99.90;;;;;;5009114;28;20680;-83
2023/12/02 06:24:22;;;;;;;4.72;2.60;;;-1.00;99.90;;;;;;5002635;28;20745;-86
2023/12/02 06:26:48;;;;;;;7.40;2.87;;;-1.10;99.90;;;;;;5004169;28;20193;-83
2023/12/02 06:29:14;;;;;;;1.50;1.50;;;-1.00;99.90;;;;;;4999504;28;20727;-85
2023/12/02 06:31:41;;;;;;;13.18;4.22;;;-1.00;99.90;;;;;;5017049;28;20236;-85
2023/12/02 06:34:06;;;;;;;3.22;2.92;;;-1.00;99.90;;;;;;5014423;28;20202;-84
2023/12/02 06:36:32;;;;;;;3.57;2.40;;;;;;;;;;4999334;28;20224;-84
2023/12/02 06:38:58;;;;;;;2.38;1.73;;;-1.00;99.90;;;;;;5005965;28;20324;-85
2023/12/02 06:41:24;;;;;;;6.13;5.37;;;-1.00;99.90;;;;;;5000027;28;20261;-84
2023/12/02 06:43:49;;;;;;;5.23;3.80;;;-1.00;99.90;;;;;;5002480;28;20210;-84
2023/12/02 06:46:22;;;;;;;14.70;4.27;;;-1.10;99.90;;;;;;5003170;28;20200;-85
2023/12/02 06:48:50;;;;;;;3.83;2.20;;;-1.00;99.90;;;;;;5010050;28;20229;-84
2023/12/02 06:51:16;;;;;;;10.68;4.28;;;-1.10;99.90;;;;;;5007806;28;20185;-84
2023/12/02 06:53:42;;;;;;;3.83;3.20;;;-1.10;99.90;;;;;;5008802;28;20291;-85
2023/12/02 06:56:21;;;;;;;2.70;2.10;;;-1.10;99.90;;;;;;5007618;28;20185;-83
2023/12/02 06:58:49;;;;;;;9.55;4.13;;;;;;;;;;5006822;28;20190;-84
2023/12/02 07:01:29;;;;;;;4.70;2.00;;;-1.20;99.90;;;;;;5022656;28;20216;-85
2023/12/02 07:03:56;;;;;;;3.70;2.65;;;-1.30;99.90;;;;;;5023186;28;20186;-85
2023/12/02 07:06:21;;;;;;;5.43;2.33;;;-1.30;99.90;;;;;;5009846;28;20185;-82
2023/12/02 07:08:48;;;;;;;5.83;2.97;;;-1.30;99.90;;;;;;5001231;28;20197;-83
2023/12/02 07:11:14;;;;;;;4.90;2.30;;;-1.30;99.90;;;;;;5010961;28;20555;-85
2023/12/02 07:13:40;;;;;;;6.18;4.18;;;-1.30;99.90;;;;;;5015602;28;20214;-85
2023/12/02 07:16:06;;;;;;;3.80;2.60;;;-1.30;99.90;;;;;;5018869;28;20197;-84
2023/12/02 07:18:32;;;;;;;2.70;1.50;;;-1.30;99.90;;;;;;5006034;28;20336;-86
2023/12/02 07:20:57;;;;;;;4.57;3.80;;;-1.30;99.90;;;;;;5000471;28;20679;-82
2023/12/02 07:23:25;;;;;;;9.07;6.00;;;-1.30;99.90;;;;;;5017674;28;20190;-84
2023/12/02 07:25:51;;;;;;;1.65;1.48;;;-1.30;99.90;;;;;;5002954;28;20646;-85
2023/12/02 07:28:17;;;;;;;3.90;2.70;;;-1.40;99.90;;;;;;5006812;28;20273;-84
2023/12/02 07:30:42;;;;;;;5.10;3.27;;;-1.40;99.90;;;;;;5005486;28;20519;-82
2023/12/02 07:33:08;;;;;;;4.40;3.77;;;-1.40;99.90;;;;;;5038744;28;20208;-83
2023/12/02 07:35:34;;;;;;;3.08;1.50;;;;;;;;;;5013106;28;20198;-85
2023/12/02 07:38:00;;;;;;;8.80;5.00;;;-1.40;99.90;;;;;;5021529;28;20189;-83
2023/12/02 07:40:26;;;;;;;3.87;3.53;;;-1.40;99.90;;;;;;5028370;28;20454;-83
2023/12/02 07:42:51;;;;;;;10.27;3.50;;;-1.30;99.90;;;;;;5035033;28;20201;-83
2023/12/02 07:45:17;;;;;;;7.40;1.67;;;-1.40;99.90;;;;;;5032379;28;20194;-82
2023/12/02 07:47:42;;;;;;;3.23;2.83;;;-1.40;99.90;;;;;;5014391;28;20194;-85
2023/12/02 07:50:09;;;;;;;5.43;2.87;;;-1.50;99.90;;;;;;5021677;28;20205;-82
2023/12/02 07:52:35;;;;;;;9.15;3.28;;;-1.40;99.90;;;;;;5014198;28;20189;-87
2023/12/02 07:55:00;;;;;;;3.13;1.17;;;-1.40;99.90;;;;;;5026594;28;20296;-85
2023/12/02 07:57:26;;;;;;;3.50;3.17;;;-1.40;99.90;;;;;;5008448;28;20189;-83
2023/12/02 07:59:51;;;;;;;8.07;3.33;;;-1.40;99.90;;;;;;5005335;28;21826;-85
2023/12/02 08:02:17;;;;;;;1.87;1.77;;;;;;;;;;5017992;28;20188;-86
2023/12/02 08:04:43;;;;;;;6.20;5.65;;;-1.40;99.90;;;;;;5006605;28;20212;-84
2023/12/02 08:07:09;;;;;;;7.80;2.10;;;-1.40;99.90;;;;;;5020050;28;20201;-82
2023/12/02 08:09:34;;;;;;;5.30;2.90;;;-1.40;99.90;;;;;;5010686;28;20288;-86
2023/12/02 08:12:00;;;;;;;3.90;3.60;;;-1.40;99.90;;;;;;5006335;28;20190;-84
2023/12/02 08:14:25;;;;;;;6.50;4.33;;;-1.40;99.90;;;;;;5011723;28;20222;-84
2023/12/02 08:16:51;;;;;;;3.40;2.33;;;;;;;;;;5002260;28;20183;-83
2023/12/02 08:19:17;;;;;;;4.50;2.20;;;-1.40;99.90;;;;;;5007046;28;20507;-85
2023/12/02 08:21:42;;;;;;;3.70;3.10;;;-1.50;99.90;;;;;;5015233;28;20578;-87
2023/12/02 08:24:08;;;;;;;4.63;3.20;;;-1.50;99.90;;;;;;5019990;28;20802;-83
2023/12/02 08:26:34;;;;;;;4.37;2.73;;;-1.50;99.90;;;;;;5013034;28;20197;-86
2023/12/02 08:29:00;;;;;;;5.67;2.33;;;-1.50;99.90;;;;;;5021087;28;20190;-85
2023/12/02 08:31:26;;;;;;;3.33;3.13;;;-1.50;99.90;;;;;;5017158;28;20202;-82
2023/12/02 08:33:51;;;;;;;4.83;3.77;;;-1.50;99.90;;;;;;5016312;28;20259;-85
2023/12/02 08:36:17;;;;;;;6.00;2.63;;;-1.50;99.90;;;;;;5015914;28;20182;-86
2023/12/02 08:38:43;;;;;;;4.63;1.53;;;-1.50;99.90;;;;;;5004278;28;20213;-85
2023/12/02 08:41:08;;;;;;;2.50;1.37;;;;;;;;;;5004387;28;20767;-84
2023/12/02 08:43:34;;;;;;;4.03;2.93;;;-1.40;99.90;;;;;;5017653;28;20221;-85
2023/12/02 08:46:00;;;;;;;4.23;2.80;;;-1.40;99.90;;;;;;4990727;28;20444;-86
2023/12/02 08:48:25;;;;;;;2.20;1.60;;;-1.40;99.90;;;;;;5005200;28;20656;-84
2023/12/02 08:50:51;;;;;;;2.83;1.33;;;-1.40;99.90;;;;;;5014970;28;20527;-84
2023/12/02 08:53:17;;;;;;;4.53;1.53;;;-1.40;99.90;;;;;;5021847;28;20222;-84
2023/12/02 08:55:43;;;;;;;6.88;2.65;;;-1.40;99.90;;;;;;5011459;28;20166;-83
2023/12/02 08:58:08;;;;;;;5.60;3.43;;;;;;;;;;5020968;28;20289;-82
2023/12/02 09:00:34;;;;;;;9.53;3.53;;;;;;;;;;5014317;28;20213;-83
2023/12/02 09:03:00;;;;;;;7.43;2.20;;;-1.20;99.90;;;;;;5000258;28;20470;-83
2023/12/02 09:05:26;;;;;;;5.80;2.13;;;-1.20;99.90;;;;;;5003999;28;20498;-86
2023/12/02 09:07:54;;;;;;;4.30;2.63;;;-1.20;99.90;;;;;;5000319;28;20449;-84
2023/12/02 09:10:19;;;;;;;6.78;2.35;;;-1.30;99.90;;;;;;5002794;28;20461;-85
2023/12/02 09:12:45;;;;;;;4.50;2.73;;;-1.20;99.90;;;;;;5000716;28;20185;-84
2023/12/02 09:15:17;;;;;;;4.20;3.70;;;-1.30;99.90;;;;;;5021114;28;20288;-85
2023/12/02 09:17:48;;;;;;;1.90;0.90;;;-1.30;99.90;;;;;;5002696;28;20671;-83
2023/12/02 09:20:43;;;;;;;4.15;1.38;;;-1.30;99.90;;;;;;4998196;28;20822;-84
2023/12/02 09:23:10;;;;;;;11.13;4.80;;;-1.30;99.90;;;;;;5002554;28;20603;-83
2023/12/02 09:25:38;;;;;;;1.85;0.93;;;-1.30;99.90;;;;;;5012362;28;20193;-85
2023/12/02 09:28:06;;;;;;;5.07;1.10;;;-1.40;99.90;;;;;;5014810;28;20368;-86
2023/12/02 09:30:51;;;;;;;6.32;2.38;;;-1.40;99.90;;;;;;5006898;28;20290;-86
2023/12/02 09:33:18;;;;;;;4.50;2.55;;;-1.40;99.90;;;;;;5022637;28;20189;-83
2023/12/02 09:35:44;;;;;;;2.30;2.10;;;-1.50;99.90;;;;;;5001710;28;20197;-84
2023/12/02 09:38:13;;;;;;;3.03;1.73;;;-1.50;99.90;;;;;;5011476;28;20292;-87
2023/12/02 09:40:48;;;;;;;3.35;3.05;;;-1.60;99.90;;;;;;5014044;28;20212;-85
2023/12/02 09:43:39;;;;;;;11.82;4.10;;;-1.60;99.90;;;;;;5004831;28;20185;-88
2023/12/02 09:46:21;;;;;;;3.33;1.40;;;-1.60;99.90;;;;;;5009793;28;20178;-84
2023/12/02 09:49:21;;;;;;;10.00;3.75;;;-1.50;99.90;;;;;;5022030;28;20194;-83
2023/12/02 09:51:54;;;;;;;2.60;2.45;;;-1.40;99.90;;;;;;5021365;28;20191;-85
2023/12/02 09:54:41;;;;;;;5.50;2.90;;;-1.30;99.90;;;;;;5013625;28;20210;-86
2023/12/02 09:57:15;;;;;;;3.33;2.75;;;-1.20;99.90;;;;;;5021926;28;20556;-85
2023/12/02 10:00:02;;;;;;;7.85;2.53;;;-1.10;99.90;;;;;;5014249;28;20201;-85
2023/12/02 10:02:45;;;;;;;5.22;2.10;;;-1.10;99.90;;;;;;5010303;28;21508;-82
2023/12/02 10:05:13;;;;;;;4.43;3.53;;;-1.10;99.90;;;;;;5017743;28;20193;-83
2023/12/02 10:07:52;;;;;;;3.92;2.30;;;-1.10;99.90;;;;;;5024150;28;20485;-85
2023/12/02 10:10:38;;;;;;;2.03;1.17;;;-1.00;99.90;;;;;;5013921;28;20283;-86
2023/12/02 10:13:31;;;;;;;3.97;3.17;;;-0.90;99.90;;;;;;5030023;28;20197;-82
2023/12/02 10:16:00;;;;;;;2.95;1.27;;;-1.20;99.90;;;;;;5020364;28;20192;-86
2023/12/02 10:18:32;;;;;;;4.82;2.03;;;-0.80;99.90;;;;;;5014517;28;20206;-86
2023/12/02 10:21:02;;;;;;;5.32;3.60;;;-0.80;99.90;;;;;;5007746;28;20631;-84
2023/12/02 10:23:57;;;;;;;4.10;2.03;;;-0.90;99.90;;;;;;5009146;28;20871;-87
2023/12/02 10:26:28;;;;;;;1.70;1.08;;;-1.00;99.90;;;;;;5006753;28;20190;-84
2023/12/02 10:29:00;;;;;;;2.38;1.85;;;-1.20;99.90;;;;;;5010554;28;20197;-83
2023/12/02 10:31:28;;;;;;;3.55;2.15;;;-1.30;99.90;;;;;;5007044;28;20190;-86
2023/12/02 10:34:22;;;;;;;4.88;3.22;;;-1.20;99.90;;;;;;5017632;28;20210;-85
2023/12/02 10:36:48;;;;;;;4.97;2.22;;;-1.20;99.90;;;;;;5008269;28;20242;-83
2023/12/02 10:39:48;;;;;;;3.75;1.77;;;-1.20;99.90;;;;;;5006279;28;20735;-85
2023/12/02 10:42:20;;;;;;;1.88;0.90;;;-1.20;99.90;;;;;;5004153;28;20187;-85
2023/12/02 10:44:48;;;;;;;1.40;1.30;;;-1.10;99.90;;;;;;5003879;28;20237;-83
2023/12/02 10:47:15;;;;;;;5.15;3.03;;;-1.20;99.90;;;;;;4998466;28;20182;-85
2023/12/02 10:49:41;;;;;;;3.97;2.33;;;-1.20;99.90;;;;;;5018212;28;20249;-86
2023/12/02 10:52:08;;;;;;;7.83;1.23;;;-1.30;99.90;;;;;;5005575;28;20182;-84
2023/12/02 10:54:39;;;;;;;5.03;1.90;;;-1.30;99.90;;;;;;5007025;28;21494;-85
2023/12/02 10:57:08;;;;;;;4.18;1.67;;;-1.40;99.90;;;;;;5010954;28;20204;-85
2023/12/02 10:59:39;;;;;;;2.35;2.08;;;-1.40;99.90;;;;;;5013315;28;20714;-85
2023/12/02 11:02:17;;;;;;;1.35;1.25;;;-1.50;99.90;;;;;;5018455;28;20178;-86
2023/12/02 11:04:49;;;;;;;2.47;2.10;;;-1.50;99.90;;;;;;5013944;28;20220;-84
2023/12/02 11:07:17;;;;;;;5.05;1.67;;;-1.40;99.90;;;;;;5010563;28;20269;-86
2023/12/02 11:10:01;;;;;;;4.28;2.45;;;-1.40;99.90;;;;;;5022457;28;20320;-85
2023/12/02 11:12:35;;;;;;;9.70;3.13;;;-1.40;99.90;;;;;;5007119;28;20746;-85
2023/12/02 11:15:09;;;;;;;1.88;1.45;;;-1.30;99.90;;;;;;5007699;28;20217;-86
2023/12/02 11:17:36;;;;;;;3.05;1.58;;;-1.30;99.90;;;;;;5004911;28;20216;-87
2023/12/02 11:20:12;;;;;;;4.85;3.50;;;-1.30;99.90;;;;;;5025430;28;20202;-83
2023/12/02 11:23:09;;;;;;;1.33;1.10;;;-1.30;99.90;;;;;;5012778;28;20182;-85
2023/12/02 11:25:49;;;;;;;3.03;1.65;;;-1.20;99.90;;;;;;5008823;28;20283;-82
2023/12/02 11:28:32;;;;;;;3.08;2.55;;;-1.20;99.90;;;;;;5021274;28;20177;-83
2023/12/02 11:31:09;;;;;;;3.97;2.20;;;-1.10;99.90;;;;;;5040659;28;20208;-85
2023/12/02 11:34:09;;;;;;;4.22;2.85;;;-1.20;99.90;;;;;;5020318;28;20258;-85
2023/12/02 11:37:04;;;;;;;3.72;1.58;;;-1.10;99.90;;;;;;5022483;28;20187;-85
2023/12/02 11:39:38;;;;;;;7.65;2.17;;;-1.00;99.90;;;;;;4992832;28;20214;-86
2023/12/02 11:42:25;;;;;;;3.53;1.48;;;-1.00;99.90;;;;;;5021534;28;20182;-85
2023/12/02 11:45:05;;;;;;;4.97;3.90;;;-1.10;99.90;;;;;;5022717;28;20182;-84
2023/12/02 11:47:36;;;;;;;2.47;2.20;;;-1.20;99.90;;;;;;5024800;28;20197;-84
2023/12/02 11:50:14;;;;;;;3.42;2.55;;;-1.20;99.90;;;;;;5003264;28;20295;-85
2023/12/02 11:53:07;;;;;;;1.83;1.73;;;-1.10;99.90;;;;;;5001525;28;20198;-84
2023/12/02 11:55:51;;;;;;;0.68;0.68;;;-1.10;99.90;;;;;;5018919;28;20194;-84
2023/12/02 11:58:37;;;;;;;1.67;1.23;;;-1.10;99.90;;;;;;5012668;28;20702;-87
2023/12/02 12:01:40;;;;;;;3.45;2.13;;;-1.10;99.90;;;;;;5004634;28;20210;-84
2023/12/02 12:04:15;;;;;;;2.60;2.35;;;-1.20;99.90;;;;;;5003720;28;20201;-85
2023/12/02 12:07:25;;;;;;;1.73;1.40;;;-1.30;99.90;;;;;;5025285;28;20189;-86
2023/12/02 12:10:20;;;;;;;3.75;2.75;;;-1.30;99.90;;;;;;4979262;28;20217;-84
2023/12/02 12:12:48;;;;;;;0.57;0.57;;;-1.20;99.90;;;;;;5009176;28;20192;-87
2023/12/02 12:15:14;;;;;;;1.67;1.02;;;-1.20;99.90;;;;;;5009286;28;20209;-85
2023/12/02 12:17:41;;;;;;;1.13;1.00;;;-1.20;99.90;;;;;;5010164;28;20277;-86
2023/12/02 12:20:21;;;;;;;3.58;1.95;;;-1.10;99.90;;;;;;5007067;28;20213;-86
2023/12/02 12:22:47;;;;;;;6.40;1.83;;;-1.10;99.90;;;;;;5013051;28;20188;-86
2023/12/02 12:25:13;;;;;;;4.67;1.77;;;-1.10;99.90;;;;;;5025419;28;20190;-85
2023/12/02 12:27:39;;;;;;;4.10;1.75;;;-1.20;99.90;;;;;;5009364;28;20492;-84
2023/12/02 12:30:05;;;;;;;1.38;1.27;;;-1.30;99.90;;;;;;5022195;28;20198;-83
2023/12/02 12:32:31;;;;;;;5.18;3.03;;;-1.20;99.90;;;;;;5021673;28;20194;-86
2023/12/02 12:34:57;;;;;;;3.37;2.37;;;-1.10;99.90;;;;;;5007427;28;20215;-85
2023/12/02 12:37:40;;;;;;;3.45;2.08;;;-1.60;99.90;;;;;;4995600;28;20642;-86
2023/12/02 12:40:11;;;;;;;2.63;1.08;;;-1.60;99.90;;;;;;4983771;28;20184;-83
2023/12/02 12:42:45;;;;;;;2.97;2.70;;;-1.80;99.90;;;;;;4985859;28;20229;-87
2023/12/02 12:45:12;;;;;;;3.85;1.85;;;-1.90;99.90;;;;;;4984428;28;20184;-86
2023/12/02 12:47:38;;;;;;;3.58;3.13;;;-1.90;99.90;;;;;;4984568;28;20203;-86
2023/12/02 12:50:10;;;;;;;2.73;2.53;;;-1.80;99.90;;;;;;4987226;28;20179;-86
2023/12/02 12:52:50;;;;;;;2.03;1.40;;;-1.90;99.90;;;;;;4986505;28;20427;-86
2023/12/02 12:55:20;;;;;;;1.30;1.20;;;-1.90;99.90;;;;;;4985261;28;20180;-86
2023/12/02 12:57:56;;;;;;;1.85;1.13;;;-1.90;99.90;;;;;;4986442;28;20201;-86
2023/12/02 13:00:27;;;;;;;4.47;2.03;;;-1.80;99.90;;;;;;5002568;28;20179;-86
2023/12/02 13:03:20;;;;;;;6.60;3.30;;;-1.80;99.90;;;;;;5000954;28;20374;-85
2023/12/02 13:05:57;;;;;;;0.70;0.55;;;-1.80;99.90;;;;;;4987744;28;20198;-85
2023/12/02 13:08:52;;;;;;;1.52;1.42;;;-1.80;99.90;;;;;;4989614;28;20768;-85